Map

Track Data

SID SEASON NUMBER BASIN SUBBASIN NAME ISO_TIME NATURE LAT LON WMO_WIND WMO_PRES WMO_AGENCY TRACK_TYPE DIST2LAND LANDFALL IFLAG USA_AGENCY USA_ATCF_ID USA_LAT USA_LON USA_RECORD USA_STATUS USA_WIND USA_PRES USA_SSHS USA_R34_NE USA_R34_SE USA_R34_SW USA_R34_NW USA_R50_NE USA_R50_SE USA_R50_SW USA_R50_NW USA_R64_NE USA_R64_SE USA_R64_SW USA_R64_NW USA_POCI USA_ROCI USA_RMW USA_EYE TOKYO_LAT TOKYO_LON TOKYO_GRADE TOKYO_WIND TOKYO_PRES TOKYO_R50_DIR TOKYO_R50_LONG TOKYO_R50_SHORT TOKYO_R30_DIR TOKYO_R30_LONG TOKYO_R30_SHORT TOKYO_LAND CMA_LAT CMA_LON CMA_CAT CMA_WIND CMA_PRES HKO_LAT HKO_LON HKO_CAT HKO_WIND HKO_PRES NEWDELHI_LAT NEWDELHI_LON NEWDELHI_GRADE NEWDELHI_WIND NEWDELHI_PRES NEWDELHI_CI NEWDELHI_DP NEWDELHI_POCI REUNION_LAT REUNION_LON REUNION_TYPE REUNION_WIND REUNION_PRES REUNION_TNUM REUNION_CI REUNION_RMW REUNION_R34_NE REUNION_R34_SE REUNION_R34_SW REUNION_R34_NW REUNION_R50_NE REUNION_R50_SE REUNION_R50_SW REUNION_R50_NW REUNION_R64_NE REUNION_R64_SE REUNION_R64_SW REUNION_R64_NW BOM_LAT BOM_LON BOM_TYPE BOM_WIND BOM_PRES BOM_TNUM BOM_CI BOM_RMW BOM_R34_NE BOM_R34_SE BOM_R34_SW BOM_R34_NW BOM_R50_NE BOM_R50_SE BOM_R50_SW BOM_R50_NW BOM_R64_NE BOM_R64_SE BOM_R64_SW BOM_R64_NW BOM_ROCI BOM_POCI BOM_EYE BOM_POS_METHOD BOM_PRES_METHOD NADI_LAT NADI_LON NADI_CAT NADI_WIND NADI_PRES WELLINGTON_LAT WELLINGTON_LON WELLINGTON_WIND WELLINGTON_PRES DS824_LAT DS824_LON DS824_STAGE DS824_WIND DS824_PRES TD9636_LAT TD9636_LON TD9636_STAGE TD9636_WIND TD9636_PRES TD9635_LAT TD9635_LON TD9635_WIND TD9635_PRES TD9635_ROCI NEUMANN_LAT NEUMANN_LON NEUMANN_CLASS NEUMANN_WIND NEUMANN_PRES MLC_LAT MLC_LON MLC_CLASS MLC_WIND MLC_PRES USA_GUST BOM_GUST BOM_GUST_PER REUNION_GUST REUNION_GUST_PER USA_SEAHGT USA_SEARAD_NE USA_SEARAD_SE USA_SEARAD_SW USA_SEARAD_NW STORM_SPEED STORM_DIR
1974271N11315 1974 111 NA NA GERTRUDE 1974-09-27 12:00:00 TS 10.7000 -45.1000 30 hurdat_atl main 990 939 O_____________ hurdat_atl AL171974 10.7000 -45.1000 TD 30 -1 14 270
1974271N11315 1974 111 NA NA GERTRUDE 1974-09-27 15:00:00 TS 10.6977 -45.7925 main 939 891 P_____________ AL171974 10.6977 -45.7925 TD 30 -1 14 270
1974271N11315 1974 111 NA NA GERTRUDE 1974-09-27 18:00:00 TS 10.7000 -46.5000 30 hurdat_atl main 891 847 O_____________ hurdat_atl AL171974 10.7000 -46.5000 TD 30 -1 14 270
1974271N11315 1974 111 NA NA GERTRUDE 1974-09-27 21:00:00 TS 10.7075 -47.2224 main 847 804 P_____________ AL171974 10.7075 -47.2224 TD 30 -1 14 270
1974271N11315 1974 111 NA NA GERTRUDE 1974-09-28 00:00:00 TS 10.7000 -47.9000 30 hurdat_atl main 804 770 O_____________ hurdat_atl AL171974 10.7000 -47.9000 TD 30 -1 12 267
1974271N11315 1974 111 NA NA GERTRUDE 1974-09-28 03:00:00 TS 10.6497 -48.4650 main 755 723 P_____________ AL171974 10.6497 -48.4650 TD 30 -1 11 265
1974271N11315 1974 111 NA NA GERTRUDE 1974-09-28 06:00:00 TS 10.6000 -49.0000 30 hurdat_atl main 723 694 O_____________ hurdat_atl AL171974 10.6000 -49.0000 TD 30 -1 11 266
1974271N11315 1974 111 NA NA GERTRUDE 1974-09-28 09:00:00 TS 10.5772 -49.5626 main 689 659 P_____________ AL171974 10.5772 -49.5626 TD 30 -1 12 270
1974271N11315 1974 111 NA NA GERTRUDE 1974-09-28 12:00:00 TS 10.6000 -50.2000 30 hurdat_atl main 659 636 O_____________ hurdat_atl AL171974 10.6000 -50.2000 TD 30 -1 14 274
1974271N11315 1974 111 NA NA GERTRUDE 1974-09-28 15:00:00 TS 10.6852 -50.9999 main 636 609 P_____________ AL171974 10.6852 -50.9999 TD 37 0 16 277
1974271N11315 1974 111 NA NA GERTRUDE 1974-09-28 18:00:00 TS 10.8000 -51.8000 45 1004 hurdat_atl main 609 594 O_____________ hurdat_atl AL171974 10.8000 -51.8000 TS 45 1004 0 14 279
1974271N11315 1974 111 NA NA GERTRUDE 1974-09-28 21:00:00 TS 10.8998 -52.4450 main 594 583 P_____________ AL171974 10.8998 -52.4450 TS 55 1001 0 12 280
1974271N11315 1974 111 NA NA GERTRUDE 1974-09-29 00:00:00 TS 11.0000 -53.0000 65 999 hurdat_atl main 586 579 O_____________ hurdat_atl AL171974 11.0000 -53.0000 HU 65 999 1 11 281
1974271N11315 1974 111 NA NA GERTRUDE 1974-09-29 03:00:00 TS 11.0998 -53.5150 main 587 584 P_____________ AL171974 11.0998 -53.5150 HU 65 999 1 10 282
1974271N11315 1974 111 NA NA GERTRUDE 1974-09-29 06:00:00 TS 11.2000 -54.0000 65 hurdat_atl main 594 593 I_____________ hurdat_atl AL171974 11.2000 -54.0000 HU 65 999 1 10 282
1974271N11315 1974 111 NA NA GERTRUDE 1974-09-29 09:00:00 TS 11.3076 -54.5450 main 604 580 P_____________ AL171974 11.3076 -54.5450 HU 65 999 1 10 282
1974271N11315 1974 111 NA NA GERTRUDE 1974-09-29 12:00:00 TS 11.4000 -55.0000 65 1000 hurdat_atl main 580 564 O_____________ hurdat_atl AL171974 11.4000 -55.0000 HU 65 1000 1 7 282
1974271N11315 1974 111 NA NA GERTRUDE 1974-09-29 15:00:00 TS 11.4498 -55.2301 main 564 556 P_____________ AL171974 11.4498 -55.2301 HU 65 1000 1 4 284
1974271N11315 1974 111 NA NA GERTRUDE 1974-09-29 18:00:00 TS 11.5000 -55.4000 65 1001 hurdat_atl main 556 541 O_____________ hurdat_atl AL171974 11.5000 -55.4000 HU 65 1001 1 5 292
1974271N11315 1974 111 NA NA GERTRUDE 1974-09-29 21:00:00 TS 11.6376 -55.6999 main 541 529 P_____________ AL171974 11.6376 -55.6999 HU 65 1002 1 6 289
1974271N11315 1974 111 NA NA GERTRUDE 1974-09-30 00:00:00 TS 11.7000 -56.0000 65 1004 hurdat_atl main 529 506 O_____________ hurdat_atl AL171974 11.7000 -56.0000 HU 65 1004 1 5 259
1974271N11315 1974 111 NA NA GERTRUDE 1974-09-30 03:00:00 TS 11.5375 -56.2301 main 497 466 P_____________ AL171974 11.5375 -56.2301 HU 65 1004 1 6 224
1974271N11315 1974 111 NA NA GERTRUDE 1974-09-30 06:00:00 TS 11.3000 -56.4000 65 1005 hurdat_atl main 466 442 O_____________ hurdat_atl AL171974 11.3000 -56.4000 HU 65 1005 1 5 213
1974271N11315 1974 111 NA NA GERTRUDE 1974-09-30 09:00:00 TS 11.0825 -56.5375 main 442 426 P_____________ AL171974 11.0825 -56.5375 HU 65 1005 1 4 213
1974271N11315 1974 111 NA NA GERTRUDE 1974-09-30 12:00:00 TS 11.0000 -56.6000 65 hurdat_atl main 426 426 I_____________ hurdat_atl AL171974 11.0000 -56.6000 HU 65 1006 1 1 0
1974271N11315 1974 111 NA NA GERTRUDE 1974-09-30 15:00:00 TS 11.1975 -56.5201 main 451 451 P_____________ AL171974 11.1975 -56.5201 HU 55 1007 0 5 11
1974271N11315 1974 111 NA NA GERTRUDE 1974-09-30 18:00:00 TS 11.5000 -56.5000 45 1008 hurdat_atl main 478 478 O_____________ hurdat_atl AL171974 11.5000 -56.5000 TS 45 1008 0 6 337
1974271N11315 1974 111 NA NA GERTRUDE 1974-09-30 21:00:00 TS 11.7301 -56.7474 main 482 446 P_____________ AL171974 11.7301 -56.7474 TS 45 0 7 304
1974271N11315 1974 111 NA NA GERTRUDE 1974-10-01 00:00:00 TS 11.9000 -57.1000 45 hurdat_atl main 446 418 O_____________ hurdat_atl AL171974 11.9000 -57.1000 TS 45 0 7 291
1974271N11315 1974 111 NA NA GERTRUDE 1974-10-01 03:00:00 TS 11.9725 -57.4001 main 418 388 P_____________ AL171974 11.9725 -57.4001 TS 45 0 6 280
1974271N11315 1974 111 NA NA GERTRUDE 1974-10-01 06:00:00 TS 12.0000 -57.7000 45 hurdat_atl main 388 358 O_____________ hurdat_atl AL171974 12.0000 -57.7000 TS 45 0 6 278
1974271N11315 1974 111 NA NA GERTRUDE 1974-10-01 09:00:00 TS 12.0500 -58.0000 main 358 333 P_____________ AL171974 12.0500 -58.0000 TS 45 0 6 280
1974271N11315 1974 111 NA NA GERTRUDE 1974-10-01 12:00:00 TS 12.1000 -58.3000 45 1009 hurdat_atl main 333 305 O_____________ hurdat_atl AL171974 12.1000 -58.3000 TS 45 1009 0 6 279
1974271N11315 1974 111 NA NA GERTRUDE 1974-10-01 15:00:00 TS 12.1424 -58.5776 main 305 284 P_____________ AL171974 12.1424 -58.5776 TS 42 0 6 280
1974271N11315 1974 111 NA NA GERTRUDE 1974-10-01 18:00:00 TS 12.2000 -58.9000 40 hurdat_atl main 284 257 O_____________ hurdat_atl AL171974 12.2000 -58.9000 TS 40 0 8 282
1974271N11315 1974 111 NA NA GERTRUDE 1974-10-01 21:00:00 TS 12.3001 -59.3424 main 257 231 P_____________ AL171974 12.3001 -59.3424 TS 40 0 9 283
1974271N11315 1974 111 NA CS GERTRUDE 1974-10-02 00:00:00 TS 12.4000 -59.8000 40 hurdat_atl main 231 214 O_____________ hurdat_atl AL171974 12.4000 -59.8000 TS 40 0 8 281
1974271N11315 1974 111 NA CS GERTRUDE 1974-10-02 03:00:00 TS 12.4573 -60.1426 main 224 208 P_____________ AL171974 12.4573 -60.1426 TS 37 0 7 278
1974271N11315 1974 111 NA CS GERTRUDE 1974-10-02 06:00:00 TS 12.5000 -60.5000 35 hurdat_atl main 208 201 O_____________ hurdat_atl AL171974 12.5000 -60.5000 TS 35 0 8 276
1974271N11315 1974 111 NA CS GERTRUDE 1974-10-02 09:00:00 TS 12.5501 -60.9850 main 212 212 P_____________ AL171974 12.5501 -60.9850 TS 32 -1 10 276
1974271N11315 1974 111 NA CS GERTRUDE 1974-10-02 12:00:00 TS 12.6000 -61.5000 30 hurdat_atl main 212 212 O_____________ hurdat_atl AL171974 12.6000 -61.5000 TD 30 -1 10 276
1974271N11315 1974 111 NA CS GERTRUDE 1974-10-02 15:00:00 TS 12.6574 -61.9650 main 225 223 P_____________ AL171974 12.6574 -61.9650 TD 30 -1 9 276
1974271N11315 1974 111 NA CS GERTRUDE 1974-10-02 18:00:00 TS 12.7000 -62.4000 30 hurdat_atl main 223 223 O_____________ hurdat_atl AL171974 12.7000 -62.4000 TD 30 -1 8 273
1974271N11315 1974 111 NA CS GERTRUDE 1974-10-02 21:00:00 TS 12.6999 -62.8001 main 223 223 P_____________ AL171974 12.6999 -62.8001 TD 30 -1 8 270
1974271N11315 1974 111 NA CS GERTRUDE 1974-10-03 00:00:00 TS 12.7000 -63.2000 30 hurdat_atl main 224 224 O_____________ hurdat_atl AL171974 12.7000 -63.2000 TD 30 -1 8 273
1974271N11315 1974 111 NA CS GERTRUDE 1974-10-03 03:00:00 TS 12.7500 -63.6424 main 230 230 P_____________ AL171974 12.7500 -63.6424 TD 30 -1 9 277
1974271N11315 1974 111 NA CS GERTRUDE 1974-10-03 06:00:00 TS 12.8000 -64.1000 30 hurdat_atl main 246 246 O_____________ hurdat_atl AL171974 12.8000 -64.1000 TD 30 -1 9 273
1974271N11315 1974 111 NA CS GERTRUDE 1974-10-03 09:00:00 TS 12.7999 -64.5426 main 248 248 P_____________ AL171974 12.7999 -64.5426 TD 30 -1 9 270
1974271N11315 1974 111 NA CS GERTRUDE 1974-10-03 12:00:00 TS 12.8000 -65.0000 30 hurdat_atl main 261 252 O_____________ hurdat_atl AL171974 12.8000 -65.0000 TD 30 -1 9 273
1974271N11315 1974 111 NA CS GERTRUDE 1974-10-03 15:00:00 TS 12.8424 -65.4925 main 252 252 P_____________ AL171974 12.8424 -65.4925 TD 30 -1 10 276
1974271N11315 1974 111 NA CS GERTRUDE 1974-10-03 18:00:00 TS 12.9000 -66.0000 30 hurdat_atl main 257 257 O_____________ hurdat_atl AL171974 12.9000 -66.0000 TD 30 -1 10 276
1974271N11315 1974 111 NA CS GERTRUDE 1974-10-03 21:00:00 TS 12.9527 -66.5025 main 268 252 P_____________ AL171974 12.9527 -66.5025 TD 30 -1 10 276
1974271N11315 1974 111 NA CS GERTRUDE 1974-10-04 00:00:00 TS 13.0000 -67.0000 30 hurdat_atl main 252 O_____________ hurdat_atl AL171974 13.0000 -67.0000 TD 30 -1 10 276

About IBTrACS Database

This database is a web-friendly format of International Best Track Archive for Climate Stewardship (IBTrACS), a global best track data archive curated by NOAA dating back to 1842.

Updated: 2021-10-25